createdAt,value
2019-03-01T00:00:56.452Z,5.70
2019-03-01T00:03:24.377Z,5.10
2019-03-01T00:06:20.401Z,5.50
2019-03-01T00:09:05.970Z,4.70
2019-03-01T00:11:39.389Z,4.70
2019-03-01T00:14:18.198Z,4.77
2019-03-01T00:17:05.128Z,4.33
2019-03-01T00:19:45.795Z,4.40
2019-03-01T00:22:19.926Z,4.60
2019-03-01T00:25:09.953Z,4.60
2019-03-01T00:28:02.542Z,4.83
2019-03-01T00:30:37.627Z,4.33
2019-03-01T00:33:08.466Z,4.47
2019-03-01T00:35:54.210Z,4.33
2019-03-01T00:38:50.943Z,4.60
2019-03-01T00:41:38.096Z,4.10
2019-03-01T00:44:24.214Z,4.10
2019-03-01T00:46:52.160Z,4.07
2019-03-01T00:49:19.841Z,4.53
2019-03-01T00:51:47.805Z,4.27
2019-03-01T00:54:15.502Z,4.70
2019-03-01T00:56:43.161Z,4.53
2019-03-01T00:59:10.829Z,4.50
2019-03-01T01:01:39.097Z,4.47
2019-03-01T01:04:07.066Z,5.03
2019-03-01T01:06:34.717Z,4.80
2019-03-01T01:09:02.841Z,4.70
2019-03-01T01:11:30.493Z,4.80
2019-03-01T01:13:58.157Z,4.30
2019-03-01T01:16:26.654Z,4.30
2019-03-01T01:18:54.613Z,4.17
2019-03-01T01:21:22.812Z,4.50
2019-03-01T01:23:50.537Z,4.60
2019-03-01T01:26:19.097Z,4.00
2019-03-01T01:28:47.105Z,4.00
2019-03-01T01:31:15.412Z,4.47
2019-03-01T01:33:43.078Z,4.70
2019-03-01T01:36:11.089Z,4.00
2019-03-01T01:38:39.045Z,4.35
2019-03-01T01:41:07.102Z,3.43
2019-03-01T01:43:35.125Z,4.00
2019-03-01T01:46:02.794Z,4.33
2019-03-01T01:48:30.778Z,4.43
2019-03-01T01:50:58.469Z,4.50
2019-03-01T01:53:26.125Z,5.03
2019-03-01T01:55:54.635Z,4.77
2019-03-01T01:58:23.413Z,4.80
2019-03-01T02:00:51.397Z,4.50
2019-03-01T02:03:19.624Z,4.50
2019-03-01T02:05:47.566Z,4.40
2019-03-01T02:08:15.817Z,5.10
2019-03-01T02:10:44.396Z,4.47
2019-03-01T02:13:12.737Z,4.13
2019-03-01T02:15:41.158Z,4.40
2019-03-01T02:18:09.522Z,3.77
2019-03-01T02:20:37.310Z,4.40
2019-03-01T02:23:05.632Z,4.30
2019-03-01T02:25:33.553Z,4.23
2019-03-01T02:28:01.225Z,3.93
2019-03-01T02:30:29.431Z,4.43
2019-03-01T02:32:57.480Z,4.60
2019-03-01T02:35:26.088Z,4.60
2019-03-01T02:37:54.086Z,4.30
2019-03-01T02:40:22.122Z,4.37
2019-03-01T02:42:50.147Z,4.40
2019-03-01T02:45:18.540Z,4.40
2019-03-01T02:47:46.453Z,4.40
2019-03-01T02:50:14.862Z,4.07
2019-03-01T02:52:42.539Z,4.63
2019-03-01T02:55:10.809Z,4.17
2019-03-01T02:57:39.396Z,3.90
2019-03-01T03:00:09.501Z,4.63
2019-03-01T03:02:37.783Z,4.27
2019-03-01T03:05:06.270Z,3.67
2019-03-01T03:07:53.915Z,3.80
2019-03-01T03:10:21.854Z,3.70
2019-03-01T03:12:50.252Z,3.60
2019-03-01T03:15:22.415Z,4.00
2019-03-01T03:17:50.062Z,4.17
2019-03-01T03:20:18.138Z,4.17
2019-03-01T03:22:46.070Z,4.10
2019-03-01T03:25:14.039Z,4.67
2019-03-01T03:27:42.313Z,4.03
2019-03-01T03:30:10.630Z,4.30
2019-03-01T03:32:38.937Z,4.33
2019-03-01T03:35:07.390Z,4.13
2019-03-01T03:37:35.293Z,4.00
2019-03-01T03:40:03.222Z,4.60
2019-03-01T03:42:30.886Z,4.47
2019-03-01T03:44:59.432Z,4.60
2019-03-01T03:47:27.718Z,4.20
2019-03-01T03:49:55.394Z,4.40
2019-03-01T03:52:23.309Z,4.93
2019-03-01T03:54:51.295Z,5.10
2019-03-01T03:57:19.281Z,5.53
2019-03-01T03:59:46.981Z,5.57
2019-03-01T04:02:15.367Z,5.77
2019-03-01T04:04:43.650Z,6.40
2019-03-01T04:07:12.221Z,6.60
2019-03-01T04:09:40.198Z,6.40
2019-03-01T04:12:07.890Z,6.00
2019-03-01T04:14:35.860Z,6.50
2019-03-01T04:17:03.879Z,5.87
2019-03-01T04:19:32.386Z,6.20
2019-03-01T04:22:00.056Z,5.97
2019-03-01T04:24:28.226Z,6.10
2019-03-01T04:26:55.897Z,5.70
2019-03-01T04:29:23.541Z,6.10
2019-03-01T04:31:51.595Z,7.43
2019-03-01T04:34:19.321Z,8.27
2019-03-01T04:36:47.292Z,8.10
2019-03-01T04:39:15.353Z,10.10
2019-03-01T04:41:43.582Z,17.53
2019-03-01T04:44:11.358Z,25.60
2019-03-01T04:46:39.285Z,26.10
2019-03-01T04:49:07.252Z,25.23
2019-03-01T04:51:40.096Z,22.40
2019-03-01T04:54:05.486Z,21.53
2019-03-01T04:56:33.863Z,20.70
2019-03-01T04:59:02.183Z,19.20
2019-03-01T05:01:30.125Z,12.93
2019-03-01T05:03:57.864Z,10.60
2019-03-01T05:06:26.146Z,9.93
2019-03-01T05:08:54.517Z,10.70
2019-03-01T05:11:22.648Z,10.77
2019-03-01T05:13:50.321Z,10.83
2019-03-01T05:16:18.290Z,10.83
2019-03-01T05:18:46.228Z,10.57
2019-03-01T05:21:14.529Z,8.50
2019-03-01T05:23:43.186Z,9.03
2019-03-01T05:26:11.204Z,9.77
2019-03-01T05:28:39.140Z,9.80
2019-03-01T05:31:07.349Z,9.03
2019-03-01T05:33:35.693Z,9.40
2019-03-01T05:36:05.258Z,9.20
2019-03-01T05:38:33.210Z,9.50
2019-03-01T05:41:01.577Z,9.43
2019-03-01T05:43:29.230Z,8.03
2019-03-01T05:45:57.161Z,9.03
2019-03-01T05:48:25.517Z,7.40
2019-03-01T05:50:53.502Z,7.47
2019-03-01T05:53:21.858Z,7.43
2019-03-01T05:55:50.390Z,6.00
2019-03-01T05:58:26.090Z,6.60
2019-03-01T06:00:53.833Z,7.10
2019-03-01T06:03:50.190Z,6.63
2019-03-01T06:06:19.661Z,8.37
2019-03-01T06:08:50.433Z,7.03
2019-03-01T06:11:37.251Z,6.40
2019-03-01T06:14:18.521Z,6.30
2019-03-01T06:17:05.378Z,7.33
2019-03-01T06:19:45.541Z,6.83
2019-03-01T06:22:32.613Z,7.47
2019-03-01T06:25:38.502Z,7.47
2019-03-01T06:28:25.275Z,7.60
2019-03-01T06:31:18.109Z,8.00
2019-03-01T06:34:06.818Z,7.50
2019-03-01T06:37:08.970Z,7.50
2019-03-01T06:40:20.566Z,8.77
2019-03-01T06:43:00.000Z,9.00
2019-03-01T06:45:35.510Z,9.03
2019-03-01T06:48:04.173Z,8.20
2019-03-01T06:50:36.574Z,8.77
2019-03-01T06:53:04.857Z,9.40
2019-03-01T06:55:36.733Z,9.10
2019-03-01T06:58:04.633Z,9.50
2019-03-01T07:00:35.968Z,9.13
2019-03-01T07:03:04.366Z,9.30
2019-03-01T07:05:32.338Z,9.47
2019-03-01T07:08:00.371Z,10.00
2019-03-01T07:10:28.844Z,10.60
2019-03-01T07:12:56.780Z,9.40
2019-03-01T07:15:24.777Z,9.73
2019-03-01T07:17:52.792Z,9.60
2019-03-01T07:20:20.456Z,9.80
2019-03-01T07:22:48.810Z,10.57
2019-03-01T07:25:16.932Z,10.13
2019-03-01T07:27:45.254Z,11.00
2019-03-01T07:30:13.362Z,11.40
2019-03-01T07:32:41.694Z,11.60
2019-03-01T07:35:09.388Z,12.70
2019-03-01T07:37:37.373Z,12.10
2019-03-01T07:40:05.814Z,12.57
2019-03-01T07:42:34.113Z,14.90
2019-03-01T07:45:02.447Z,15.33
2019-03-01T07:47:30.477Z,15.83
2019-03-01T07:49:58.449Z,16.17
2019-03-01T07:52:26.469Z,18.30
2019-03-01T07:54:54.654Z,18.10
2019-03-01T07:57:22.678Z,19.07
2019-03-01T07:59:50.691Z,18.70
2019-03-01T08:02:18.729Z,18.33
2019-03-01T08:04:46.634Z,21.90
2019-03-01T08:07:15.012Z,20.80
2019-03-01T08:09:44.915Z,22.43
2019-03-01T08:12:12.072Z,24.50
2019-03-01T08:14:40.534Z,24.27
2019-03-01T08:17:08.626Z,24.83
2019-03-01T08:19:37.002Z,27.30
2019-03-01T08:22:05.374Z,28.60
2019-03-01T08:24:33.053Z,29.53
2019-03-01T08:27:01.083Z,31.40
2019-03-01T08:29:30.716Z,29.70
2019-03-01T08:31:59.007Z,31.43
2019-03-01T08:34:26.693Z,33.07
2019-03-01T08:36:54.687Z,36.10
2019-03-01T08:39:22.416Z,33.70
2019-03-01T08:41:50.455Z,35.30
2019-03-01T08:44:19.480Z,36.43
2019-03-01T08:46:48.861Z,35.97
2019-03-01T08:49:16.931Z,36.80
2019-03-01T08:51:45.223Z,38.40
2019-03-01T08:54:13.135Z,38.60
2019-03-01T08:56:41.149Z,38.67
2019-03-01T08:59:09.524Z,38.10
2019-03-01T09:01:37.212Z,36.90
2019-03-01T09:04:07.088Z,39.20
2019-03-01T09:06:35.429Z,38.73
2019-03-01T09:09:05.385Z,37.77
2019-03-01T09:11:33.332Z,39.37
2019-03-01T09:14:01.313Z,38.93
2019-03-01T09:16:29.266Z,38.57
2019-03-01T09:18:57.471Z,39.20
2019-03-01T09:21:25.150Z,38.47
2019-03-01T09:23:54.989Z,39.00
2019-03-01T09:26:22.958Z,38.80
2019-03-01T09:28:50.938Z,40.67
2019-03-01T09:31:18.862Z,39.73
2019-03-01T09:33:47.230Z,40.67
2019-03-01T09:36:21.288Z,40.67
2019-03-01T09:38:48.677Z,38.80
2019-03-01T09:41:17.141Z,39.10
2019-03-01T09:43:45.666Z,39.23
2019-03-01T09:46:13.673Z,39.20
2019-03-01T09:48:42.155Z,40.07
2019-03-01T09:51:10.695Z,38.80
2019-03-01T09:53:39.464Z,36.67
2019-03-01T09:56:09.781Z,39.00
2019-03-01T09:58:37.115Z,39.40
2019-03-01T10:01:06.851Z,38.73
2019-03-01T10:03:35.483Z,38.80
2019-03-01T10:06:03.457Z,37.83
2019-03-01T10:08:31.477Z,39.17
2019-03-01T10:11:00.518Z,37.33
2019-03-01T10:13:30.417Z,38.33
2019-03-01T10:15:58.290Z,36.20
2019-03-01T10:18:26.309Z,34.33
2019-03-01T10:20:54.319Z,32.67
2019-03-01T10:23:22.221Z,34.17
2019-03-01T10:25:49.893Z,28.30
2019-03-01T10:28:17.819Z,34.40
2019-03-01T10:30:45.786Z,31.53
2019-03-01T10:33:13.817Z,32.37
2019-03-01T10:35:42.025Z,31.20
2019-03-01T10:38:10.587Z,29.40
2019-03-01T10:40:38.911Z,31.20
2019-03-01T10:43:07.169Z,30.07
2019-03-01T10:45:35.530Z,30.00
2019-03-01T10:48:03.235Z,30.10
2019-03-01T10:50:31.241Z,29.47
2019-03-01T10:52:59.201Z,28.90
2019-03-01T10:55:27.171Z,26.33
2019-03-01T10:57:55.133Z,25.73
2019-03-01T11:00:24.420Z,26.80
2019-03-01T11:02:52.350Z,25.43
2019-03-01T11:05:20.102Z,32.30
2019-03-01T11:07:48.909Z,49.67
2019-03-01T11:10:18.407Z,42.07
2019-03-01T11:12:46.445Z,57.00
2019-03-01T11:15:14.633Z,37.13
2019-03-01T11:17:42.590Z,39.60
2019-03-01T11:20:10.981Z,37.03
2019-03-01T11:22:38.926Z,31.47
2019-03-01T11:25:07.813Z,27.70
2019-03-01T11:27:35.828Z,28.30
2019-03-01T11:30:03.854Z,26.77
2019-03-01T11:32:31.586Z,28.57
2019-03-01T11:34:59.537Z,24.57
2019-03-01T11:37:27.213Z,26.37
2019-03-01T11:39:55.240Z,27.83
2019-03-01T11:42:23.213Z,25.30
2019-03-01T11:44:51.165Z,24.10
2019-03-01T11:47:19.517Z,24.90
2019-03-01T11:49:47.507Z,26.00
2019-03-01T11:52:15.194Z,26.40
2019-03-01T11:54:42.869Z,25.47
2019-03-01T11:57:11.334Z,25.47
2019-03-01T11:59:39.673Z,24.90
2019-03-01T12:02:07.683Z,23.67
2019-03-01T12:04:35.948Z,24.20
2019-03-01T12:07:03.957Z,24.33
2019-03-01T12:09:31.613Z,25.40
2019-03-01T12:11:59.590Z,26.33
2019-03-01T12:14:27.422Z,25.27
2019-03-01T12:16:55.709Z,24.23
2019-03-01T12:19:23.622Z,25.70
2019-03-01T12:21:51.978Z,25.53
2019-03-01T12:24:20.450Z,25.20
2019-03-01T12:26:48.106Z,25.93
2019-03-01T12:29:16.706Z,26.10
2019-03-01T12:31:44.676Z,26.13
2019-03-01T12:34:12.422Z,27.97
2019-03-01T12:36:41.116Z,25.90
2019-03-01T12:39:09.947Z,27.60
2019-03-01T12:41:37.801Z,27.33
2019-03-01T12:44:06.050Z,25.47
2019-03-01T12:46:34.421Z,27.53
2019-03-01T12:49:02.505Z,25.60
2019-03-01T12:51:31.003Z,24.87
2019-03-01T12:53:58.683Z,25.03
2019-03-01T12:56:26.687Z,25.00
2019-03-01T12:58:54.359Z,25.73
2019-03-01T13:01:22.653Z,23.57
2019-03-01T13:03:50.685Z,24.97
2019-03-01T13:06:19.009Z,22.93
2019-03-01T13:08:47.818Z,23.80
2019-03-01T13:11:17.157Z,23.70
2019-03-01T13:13:45.209Z,23.50
2019-03-01T13:16:13.541Z,21.20
2019-03-01T13:18:41.566Z,22.13
2019-03-01T13:21:09.639Z,20.90
2019-03-01T13:23:40.460Z,20.03
2019-03-01T13:26:08.288Z,20.23
2019-03-01T13:28:36.294Z,18.97
2019-03-01T13:31:03.969Z,19.20
2019-03-01T13:33:34.749Z,18.50
2019-03-01T13:36:03.547Z,19.27
2019-03-01T13:38:33.935Z,19.03
2019-03-01T13:41:02.243Z,18.27
2019-03-01T13:43:30.122Z,19.23
2019-03-01T13:45:57.817Z,18.40
2019-03-01T13:48:25.842Z,18.33
2019-03-01T13:50:53.527Z,16.63
2019-03-01T13:53:21.533Z,18.30
2019-03-01T13:55:49.535Z,17.07
2019-03-01T13:58:17.725Z,19.43
2019-03-01T14:00:48.806Z,17.43
2019-03-01T14:03:15.662Z,16.33
2019-03-01T14:05:43.606Z,17.30
2019-03-01T14:08:11.271Z,16.17
2019-03-01T14:10:41.828Z,15.97
2019-03-01T14:13:11.145Z,14.70
2019-03-01T14:15:39.889Z,16.03
2019-03-01T14:18:08.250Z,14.87
2019-03-01T14:20:36.296Z,14.60
2019-03-01T14:23:04.616Z,14.13
2019-03-01T14:25:32.613Z,14.97
2019-03-01T14:28:02.086Z,15.20
2019-03-01T14:30:33.260Z,14.60
2019-03-01T14:32:59.732Z,13.10
2019-03-01T14:35:28.122Z,12.47
2019-03-01T14:37:55.935Z,11.87
2019-03-01T14:40:24.007Z,10.90
2019-03-01T14:42:51.834Z,11.70
2019-03-01T14:45:20.730Z,11.03
2019-03-01T14:47:48.849Z,10.83
2019-03-01T14:50:17.387Z,10.87
2019-03-01T14:52:45.413Z,10.80
2019-03-01T14:55:14.932Z,11.50
2019-03-01T14:57:46.150Z,11.00
2019-03-01T15:00:17.361Z,11.43
2019-03-01T15:02:50.659Z,11.90
2019-03-01T15:05:19.859Z,15.37
2019-03-01T15:07:48.385Z,13.77
2019-03-01T15:10:16.753Z,16.20
2019-03-01T15:12:44.450Z,16.30
2019-03-01T15:15:12.182Z,20.47
2019-03-01T15:17:40.389Z,21.07
2019-03-01T15:20:09.890Z,22.13
2019-03-01T15:22:37.930Z,22.10
2019-03-01T15:25:08.219Z,22.60
2019-03-01T15:27:39.725Z,24.53
2019-03-01T15:30:09.119Z,24.97
2019-03-01T15:32:37.016Z,25.73
2019-03-01T15:35:04.709Z,26.17
2019-03-01T15:37:35.023Z,25.87
2019-03-01T15:40:02.074Z,28.90
2019-03-01T15:42:29.806Z,28.57
2019-03-01T15:44:57.708Z,29.07
2019-03-01T15:47:26.666Z,31.60
2019-03-01T15:49:55.521Z,30.60
2019-03-01T15:52:23.535Z,31.60
2019-03-01T15:54:51.923Z,31.70
2019-03-01T15:57:19.936Z,31.63
2019-03-01T15:59:48.898Z,29.97
2019-03-01T16:02:17.566Z,29.77
2019-03-01T16:04:45.937Z,28.70
2019-03-01T16:07:14.015Z,27.47
2019-03-01T16:09:41.767Z,23.33
2019-03-01T16:12:09.679Z,21.30
2019-03-01T16:14:37.446Z,21.60
2019-03-01T16:17:05.458Z,22.27
2019-03-01T16:19:33.854Z,21.87
2019-03-01T16:22:02.349Z,20.20
2019-03-01T16:24:30.049Z,21.03
2019-03-01T16:26:57.706Z,18.87
2019-03-01T16:29:25.645Z,21.33
2019-03-01T16:31:54.050Z,19.13
2019-03-01T16:34:21.813Z,19.47
2019-03-01T16:36:52.713Z,18.20
2019-03-01T16:39:23.879Z,20.23
2019-03-01T16:41:51.915Z,17.10
2019-03-01T16:44:20.221Z,17.20
2019-03-01T16:46:48.442Z,17.90
2019-03-01T16:49:16.131Z,17.13
2019-03-01T16:51:44.168Z,17.90
2019-03-01T16:54:15.174Z,17.70
2019-03-01T16:56:42.176Z,16.37
2019-03-01T16:59:09.944Z,16.50
2019-03-01T17:01:38.035Z,15.63
2019-03-01T17:04:05.985Z,15.80
2019-03-01T17:06:34.052Z,15.23
2019-03-01T17:09:03.980Z,15.57
2019-03-01T17:11:31.833Z,16.57
2019-03-01T17:14:02.672Z,15.27
2019-03-01T17:16:29.341Z,15.80
2019-03-01T17:18:57.630Z,15.87
2019-03-01T17:21:25.632Z,16.33
2019-03-01T17:23:54.703Z,16.20
2019-03-01T17:26:22.520Z,15.93
2019-03-01T17:28:50.567Z,15.90
2019-03-01T17:31:18.518Z,16.10
2019-03-01T17:33:48.843Z,15.80
2019-03-01T17:36:17.043Z,15.50
2019-03-01T17:38:46.200Z,17.30
2019-03-01T17:41:14.268Z,16.10
2019-03-01T17:43:42.285Z,16.53
2019-03-01T17:46:10.222Z,14.60
2019-03-01T17:48:38.166Z,15.57
2019-03-01T17:51:05.834Z,14.23
2019-03-01T17:53:34.065Z,13.60
2019-03-01T17:56:02.002Z,14.70
2019-03-01T17:58:29.753Z,13.80
2019-03-01T18:00:58.877Z,15.03
2019-03-01T18:03:27.711Z,15.03
2019-03-01T18:05:55.361Z,14.30
2019-03-01T18:08:23.854Z,14.90
2019-03-01T18:10:51.917Z,14.93
2019-03-01T18:13:20.000Z,14.57
2019-03-01T18:15:48.714Z,14.20
2019-03-01T18:18:17.057Z,14.27
2019-03-01T18:20:45.117Z,13.83
2019-03-01T18:23:12.816Z,14.43
2019-03-01T18:25:41.033Z,14.77
2019-03-01T18:28:09.162Z,16.00
2019-03-01T18:30:37.593Z,15.20
2019-03-01T18:33:05.946Z,15.30
2019-03-01T18:35:34.201Z,13.93
2019-03-01T18:38:02.053Z,14.33
2019-03-01T18:40:30.487Z,14.67
2019-03-01T18:42:58.618Z,12.77
2019-03-01T18:45:26.625Z,13.50
2019-03-01T18:47:55.171Z,14.17
2019-03-01T18:50:27.595Z,13.50
2019-03-01T18:52:54.360Z,14.00
2019-03-01T18:55:22.133Z,14.13
2019-03-01T18:57:50.197Z,14.43
2019-03-01T19:00:19.179Z,15.10
2019-03-01T19:02:47.384Z,14.43
2019-03-01T19:05:15.127Z,14.77
2019-03-01T19:07:43.150Z,13.70
2019-03-01T19:10:11.146Z,14.67
2019-03-01T19:12:39.351Z,14.50
2019-03-01T19:15:07.946Z,14.73
2019-03-01T19:17:36.787Z,16.33
2019-03-01T19:20:05.708Z,16.00
2019-03-01T19:22:35.020Z,16.80
2019-03-01T19:25:03.313Z,17.37
2019-03-01T19:27:31.302Z,16.03
2019-03-01T19:29:59.099Z,15.40
2019-03-01T19:32:27.610Z,15.03
2019-03-01T19:34:55.345Z,14.90
2019-03-01T19:37:23.604Z,15.13
2019-03-01T19:39:51.692Z,14.37
2019-03-01T19:42:20.417Z,13.57
2019-03-01T19:44:48.678Z,14.37
2019-03-01T19:47:16.741Z,12.73
2019-03-01T19:49:45.173Z,13.40
2019-03-01T19:52:14.184Z,12.60
2019-03-01T19:54:42.560Z,13.10
2019-03-01T19:57:11.218Z,14.43
2019-03-01T19:59:39.324Z,12.63
2019-03-01T20:02:07.720Z,14.60
2019-03-01T20:04:36.058Z,14.40
2019-03-01T20:07:04.323Z,11.80
2019-03-01T20:09:32.418Z,12.33
2019-03-01T20:12:02.757Z,11.63
2019-03-01T20:14:33.630Z,12.47
2019-03-01T20:17:00.169Z,12.20
2019-03-01T20:19:28.178Z,12.20
2019-03-01T20:21:56.137Z,12.07
2019-03-01T20:24:24.233Z,12.83
2019-03-01T20:26:51.894Z,13.90
2019-03-01T20:29:20.218Z,12.80
2019-03-01T20:31:49.006Z,12.90
2019-03-01T20:34:17.190Z,13.30
2019-03-01T20:36:45.557Z,12.40
2019-03-01T20:39:15.569Z,12.50
2019-03-01T20:41:46.308Z,12.63
2019-03-01T20:44:14.754Z,13.13
2019-03-01T20:46:43.884Z,13.10
2019-03-01T20:49:12.671Z,13.30
2019-03-01T20:51:40.948Z,13.33
2019-03-01T20:54:09.639Z,14.50
2019-03-01T20:56:37.722Z,12.87
2019-03-01T20:59:06.089Z,14.70
2019-03-01T21:01:37.243Z,16.60
2019-03-01T21:04:05.629Z,17.50
2019-03-01T21:06:34.068Z,17.70
2019-03-01T21:09:04.091Z,16.70
2019-03-01T21:11:31.273Z,16.60
2019-03-01T21:13:59.237Z,16.27
2019-03-01T21:16:27.637Z,16.07
2019-03-01T21:18:55.627Z,15.80
2019-03-01T21:21:25.511Z,16.07
2019-03-01T21:23:53.349Z,16.10
2019-03-01T21:26:21.739Z,16.53
2019-03-01T21:28:49.842Z,16.97
2019-03-01T21:31:17.888Z,17.57
2019-03-01T21:33:46.239Z,17.83
2019-03-01T21:36:14.550Z,15.93
2019-03-01T21:38:45.637Z,15.87
2019-03-01T21:41:12.646Z,14.97
2019-03-01T21:43:41.430Z,15.17
2019-03-01T21:46:09.730Z,14.60
2019-03-01T21:48:37.795Z,14.17
2019-03-01T21:51:05.918Z,13.50
2019-03-01T21:53:36.504Z,14.63
2019-03-01T21:56:04.518Z,14.60
2019-03-01T21:58:34.223Z,13.30
2019-03-01T22:01:02.730Z,14.70
2019-03-01T22:03:32.345Z,14.53
2019-03-01T22:06:00.290Z,14.60
2019-03-01T22:08:28.577Z,14.47
2019-03-01T22:10:56.769Z,15.17
2019-03-01T22:13:24.761Z,15.00
2019-03-01T22:15:52.508Z,15.00
2019-03-01T22:18:23.758Z,15.40
2019-03-01T22:20:51.297Z,15.40
2019-03-01T22:23:19.375Z,15.80
2019-03-01T22:25:47.187Z,16.47
2019-03-01T22:28:16.033Z,16.00
2019-03-01T22:30:44.406Z,15.30
2019-03-01T22:33:12.537Z,15.73
2019-03-01T22:35:40.476Z,17.43
2019-03-01T22:38:10.161Z,16.60
2019-03-01T22:40:37.896Z,15.90
2019-03-01T22:43:06.288Z,15.60
2019-03-01T22:45:34.231Z,15.40
2019-03-01T22:48:02.356Z,15.70
2019-03-01T22:50:30.666Z,15.50
2019-03-01T22:52:58.755Z,15.20
2019-03-01T22:55:27.135Z,16.00
2019-03-01T22:57:57.683Z,15.73
2019-03-01T23:00:57.557Z,15.30
2019-03-01T23:03:25.119Z,15.17
2019-03-01T23:05:53.303Z,15.67
2019-03-01T23:08:21.077Z,16.00
2019-03-01T23:10:49.417Z,15.30
2019-03-01T23:13:20.781Z,16.60
2019-03-01T23:15:47.871Z,16.00
2019-03-01T23:18:15.938Z,15.47
2019-03-01T23:20:44.030Z,16.20
2019-03-01T23:23:11.829Z,16.43
2019-03-01T23:25:42.831Z,15.90
2019-03-01T23:28:09.349Z,16.17
2019-03-01T23:30:37.797Z,17.03
2019-03-01T23:33:06.124Z,15.63
2019-03-01T23:35:33.802Z,17.23
2019-03-01T23:38:01.493Z,15.80
2019-03-01T23:40:29.213Z,15.90
2019-03-01T23:42:57.186Z,15.40
2019-03-01T23:45:25.157Z,16.20
2019-03-01T23:47:53.223Z,16.67
2019-03-01T23:50:21.202Z,15.93
2019-03-01T23:52:49.182Z,15.70
2019-03-01T23:55:19.078Z,15.67
2019-03-01T23:57:46.846Z,16.70
